M I D A S
Marine Information and Data Acquisition System
Tripno 1480 of the Zeeleeuw from 2008-05-06 12:10:16 to 2008-05-06 13:47:56
Back to CruiseResearch ActivitiesStationsMapUnderway DataData graphs

EquipmentUnitsComment
TimeDGPSUTC
LatitudeDGPSDM.mWGS84
LongitudeDGPSDM.mWGS84
HeadingGyrodeg 
SOGDGPSknotsSpeed over ground
COGDGPSdegCourse over ground
DepthEcho soundermeters200 kHz
Missing or incorrect values are displayed as -999
Navigation data collected by the RV Zeeleeuw from 2008-05-06 08:21:52 to 2008-05-06 14:00:11
                                                                                    Next 1000 lines
Time Latitude Longitude Heading SOG COG Depth
2008-05-06 08:22:02 51°13.667 2°55.95 117.7 0.9 294 5.4
2008-05-06 08:22:07 51°13.668 2°55.948 117.7 1.2 297 5.2
2008-05-06 08:22:12 51°13.669 2°55.945 118.1 1.6 299 5.3
2008-05-06 08:22:17 51°13.671 2°55.941 118.8 1.9 300 5.5
2008-05-06 08:22:22 51°13.672 2°55.936 119.6 2.2 302 -999
2008-05-06 08:22:27 51°13.674 2°55.932 120.4 2.5 303 -999
2008-05-06 08:22:32 51°13.676 2°55.927 121.2 2.7 304 -999
2008-05-06 08:22:37 51°13.679 2°55.922 121.6 2.8 305 -999
2008-05-06 08:22:42 51°13.681 2°55.916 121.9 3.1 305 -999
2008-05-06 08:22:47 51°13.683 2°55.91 121.9 3.3 306 -999
2008-05-06 08:22:52 51°13.686 2°55.904 121.2 3.4 305 -999
2008-05-06 08:22:57 51°13.689 2°55.897 120 3.5 303 -999
2008-05-06 08:23:02 51°13.691 2°55.89 118.5 3.6 302 -999
2008-05-06 08:23:07 51°13.694 2°55.883 116.9 3.7 298 -999
2008-05-06 08:23:12 51°13.696 2°55.876 115.2 3.9 298 -999
2008-05-06 08:23:17 51°13.699 2°55.868 113.1 4 295 -999
2008-05-06 08:23:22 51°13.701 2°55.859 111.2 4.2 294 -999
2008-05-06 08:23:27 51°13.703 2°55.85 109.5 4.3 292 -999
2008-05-06 08:23:32 51°13.705 2°55.841 107.9 4.5 291 -999
2008-05-06 08:23:37 51°13.707 2°55.832 106.3 4.5 289 -999
2008-05-06 08:23:42 51°13.709 2°55.822 104.7 4.5 289 -999
2008-05-06 08:23:47 51°13.711 2°55.812 103 4.5 287 -999
2008-05-06 08:23:52 51°13.713 2°55.803 101.1 4.5 286 -999
2008-05-06 08:23:57 51°13.714 2°55.794 99.3 4.2 285 -999
2008-05-06 08:24:02 51°13.716 2°55.785 97.6 4 284 -999
2008-05-06 08:24:07 51°13.717 2°55.777 96.1 3.9 283 -999
2008-05-06 08:24:12 51°13.718 2°55.77 94.7 3.5 283 -999
2008-05-06 08:24:17 51°13.718 2°55.764 92.7 2.9 281 -999
2008-05-06 08:24:22 51°13.719 2°55.759 90.1 2.3 282 -999
2008-05-06 08:24:27 51°13.72 2°55.755 87.9 1.8 281 12.3
2008-05-06 08:24:32 51°13.72 2°55.753 86 1.2 288 12.4
2008-05-06 08:24:37 51°13.721 2°55.752 81.9 0.8 304 12.3
2008-05-06 08:24:42 51°13.721 2°55.75 76.6 0.7 305 -999
2008-05-06 08:24:47 51°13.721 2°55.749 71.1 0.8 288 12.4
2008-05-06 08:24:52 51°13.721 2°55.746 67.4 1.1 270 12.2
2008-05-06 08:24:57 51°13.721 2°55.743 64.5 1.5 264 12.2
2008-05-06 08:25:02 51°13.72 2°55.739 62.1 1.8 255 -999
2008-05-06 08:25:07 51°13.719 2°55.734 58.1 2.3 251 -999
2008-05-06 08:25:12 51°13.718 2°55.729 55.5 2.4 246 -999
2008-05-06 08:25:17 51°13.717 2°55.725 53.3 2.3 247 -999
2008-05-06 08:25:22 51°13.716 2°55.721 51.4 2.1 245 -999
2008-05-06 08:25:27 51°13.715 2°55.717 49.6 1.6 250 -999
2008-05-06 08:25:32 51°13.715 2°55.715 47.1 0.8 259 -999
2008-05-06 08:25:37 51°13.715 2°55.714 42.6 0.5 294 -999
2008-05-06 08:25:42 51°13.716 2°55.714 36.5 0.9 351 -999
2008-05-06 08:25:47 51°13.718 2°55.715 29.4 1.3 7 -999
2008-05-06 08:25:52 51°13.721 2°55.715 21 1.7 4 -999
2008-05-06 08:25:57 51°13.723 2°55.715 13.2 1.8 359 -999
2008-05-06 08:26:02 51°13.726 2°55.714 7.2 1.8 357 -999
2008-05-06 08:26:07 51°13.728 2°55.714 2.7 1.9 355 -999
2008-05-06 08:26:12 51°13.731 2°55.713 358.5 2 350 -999
2008-05-06 08:26:17 51°13.734 2°55.712 354.7 2.1 347 -999
2008-05-06 08:26:22 51°13.737 2°55.71 351.3 2.2 343 -999
2008-05-06 08:26:27 51°13.74 2°55.709 345.8 2.3 342 9.4
2008-05-06 08:26:32 51°13.743 2°55.706 341.9 2.3 335 9.4
2008-05-06 08:26:37 51°13.746 2°55.704 338.7 2.4 336 9.2
2008-05-06 08:26:42 51°13.749 2°55.702 336 2.4 331 9.1
2008-05-06 08:26:47 51°13.752 2°55.7 333.7 2.4 333 -999
2008-05-06 08:26:52 51°13.755 2°55.697 332.2 2.4 330 -999
2008-05-06 08:26:57 51°13.757 2°55.694 331.4 2.5 330 -999
2008-05-06 08:27:02 51°13.76 2°55.691 330.9 2.5 328 -999
2008-05-06 08:27:07 51°13.763 2°55.688 330.5 2.5 329 -999
2008-05-06 08:27:12 51°13.766 2°55.684 330.4 2.6 328 -999
2008-05-06 08:27:17 51°13.769 2°55.681 330.4 2.6 328 -999
2008-05-06 08:27:22 51°13.772 2°55.678 330.9 2.7 329 -999
2008-05-06 08:27:27 51°13.776 2°55.675 331.7 2.7 330 -999
2008-05-06 08:27:32 51°13.779 2°55.672 332.7 2.8 330 -999
2008-05-06 08:27:37 51°13.782 2°55.668 333.5 2.9 330 -999
2008-05-06 08:27:42 51°13.786 2°55.665 334.3 2.9 332 -999
2008-05-06 08:27:47 51°13.79 2°55.662 335.2 3 332 -999
2008-05-06 08:27:52 51°13.794 2°55.659 335.6 3 334 -999
2008-05-06 08:27:57 51°13.798 2°55.657 336 3.1 334 -999
2008-05-06 08:28:02 51°13.802 2°55.654 336.5 3.1 336 -999
2008-05-06 08:28:07 51°13.806 2°55.651 337 3.2 336 -999
2008-05-06 08:28:12 51°13.81 2°55.648 337.7 3.2 338 -999
2008-05-06 08:28:17 51°13.814 2°55.646 338.7 3.3 338 9.2
2008-05-06 08:28:22 51°13.818 2°55.643 339.7 3.3 341 -999
2008-05-06 08:28:27 51°13.822 2°55.641 341.7 3.3 342 8.9
2008-05-06 08:28:32 51°13.827 2°55.638 343.8 3.3 346 8.8
2008-05-06 08:28:37 51°13.831 2°55.637 345.5 3.3 347 8.9
2008-05-06 08:28:42 51°13.836 2°55.636 348.7 3.3 351 -999
2008-05-06 08:28:47 51°13.841 2°55.635 351.9 3.4 353 -999
2008-05-06 08:28:52 51°13.845 2°55.635 356.3 3.4 355 9
2008-05-06 08:28:57 51°13.85 2°55.635 358.9 3.3 358 8.3
2008-05-06 08:29:02 51°13.855 2°55.635 1.4 3.3 1 8.2
2008-05-06 08:29:07 51°13.859 2°55.635 3.7 3.4 1 8.1
2008-05-06 08:29:12 51°13.864 2°55.636 5.1 3.4 3 8
2008-05-06 08:29:17 51°13.869 2°55.636 6.1 3.4 3 -999
2008-05-06 08:29:22 51°13.873 2°55.636 6.4 3.4 4 9
2008-05-06 08:29:27 51°13.878 2°55.637 6.5 3.4 4 -999
2008-05-06 08:29:32 51°13.883 2°55.637 6.5 3.5 4 -999
2008-05-06 08:29:37 51°13.888 2°55.638 6.3 3.5 3 -999
2008-05-06 08:29:42 51°13.892 2°55.638 6.1 3.3 4 -999
2008-05-06 08:29:47 51°13.897 2°55.639 5.8 3.2 3 -999
2008-05-06 08:29:52 51°13.901 2°55.639 5.8 3.2 3 -999
2008-05-06 08:29:57 51°13.905 2°55.64 6.1 3.1 4 -999
2008-05-06 08:30:02 51°13.91 2°55.64 6.7 2.9 5 -999
2008-05-06 08:30:07 51°13.913 2°55.641 7.6 2.6 5 -999
2008-05-06 08:30:12 51°13.916 2°55.641 7.8 2.3 5 -999
2008-05-06 08:30:17 51°13.919 2°55.642 6.6 2.1 4 -999
2008-05-06 08:30:22 51°13.922 2°55.642 4.6 1.8 2 -999
2008-05-06 08:30:27 51°13.924 2°55.642 2.4 1.6 3 -999
2008-05-06 08:30:32 51°13.926 2°55.642 0.6 1.5 -999 -999
2008-05-06 08:30:37 51°13.928 2°55.642 359.3 1.4 -999 -999
2008-05-06 08:30:42 51°13.93 2°55.642 358.3 1.4 357 -999
2008-05-06 08:30:47 51°13.932 2°55.641 357.4 1.4 358 -999
2008-05-06 08:30:52 51°13.934 2°55.641 356.6 1.3 356 -999
2008-05-06 08:30:57 51°13.935 2°55.641 355.8 1.3 356 -999
2008-05-06 08:31:02 51°13.937 2°55.641 355.1 1.3 353 -999
2008-05-06 08:31:07 51°13.939 2°55.64 354.5 1.3 354 9.9
2008-05-06 08:31:12 51°13.94 2°55.64 353.8 1.2 352 10.1
2008-05-06 08:31:17 51°13.942 2°55.64 353.2 1.1 351 -999
2008-05-06 08:31:22 51°13.943 2°55.639 351.9 1 350 -999
2008-05-06 08:31:27 51°13.944 2°55.639 350.4 0.9 349 -999
2008-05-06 08:31:32 51°13.946 2°55.638 349.2 0.8 347 -999
2008-05-06 08:31:37 51°13.947 2°55.638 348.3 0.8 348 -999
2008-05-06 08:31:42 51°13.947 2°55.638 347.2 0.7 346 -999
2008-05-06 08:31:47 51°13.948 2°55.637 346.4 0.6 347 -999
2008-05-06 08:31:52 51°13.949 2°55.637 346.1 0.6 344 -999
2008-05-06 08:31:57 51°13.95 2°55.636 346 0.6 344 -999
2008-05-06 08:32:02 51°13.951 2°55.636 346 0.5 343 10.2
2008-05-06 08:32:07 51°13.951 2°55.636 346.1 0.4 343 10.3
2008-05-06 08:32:12 51°13.951 2°55.636 346.3 0.3 336 10.1
2008-05-06 08:32:17 51°13.951 2°55.635 346.6 0.1 312 10.3
2008-05-06 08:32:22 51°13.951 2°55.635 346.6 0.1 204 -999
2008-05-06 08:32:27 51°13.951 2°55.635 346.7 0.2 194 10.3
2008-05-06 08:32:32 51°13.951 2°55.635 346.6 0.2 189 -999
2008-05-06 08:32:37 51°13.95 2°55.635 346.4 0.2 191 -999
2008-05-06 08:32:42 51°13.95 2°55.635 346.3 0.2 188 -999
2008-05-06 08:32:47 51°13.95 2°55.635 346.1 0.2 190 10.3
2008-05-06 08:32:52 51°13.949 2°55.635 346 0.2 190 10.2
2008-05-06 08:32:57 51°13.949 2°55.635 345.9 0.1 212 -999
2008-05-06 08:33:02 51°13.949 2°55.635 345.6 0.1 193 10.1
2008-05-06 08:33:07 51°13.949 2°55.634 345.1 0.1 246 -999
2008-05-06 08:33:12 51°13.949 2°55.634 344 0.1 248 -999
2008-05-06 08:33:17 51°13.949 2°55.634 343.4 0.1 249 -999
2008-05-06 08:33:22 51°13.949 2°55.634 342.7 -999 270 -999
2008-05-06 08:33:27 51°13.949 2°55.634 342.4 0.1 263 -999
2008-05-06 08:33:32 51°13.949 2°55.633 342 0.1 265 10.2
2008-05-06 08:33:37 51°13.949 2°55.633 341.8 0.1 272 -999
2008-05-06 08:33:42 51°13.949 2°55.633 341.6 0.1 275 -999
2008-05-06 08:33:47 51°13.949 2°55.633 341.4 0.1 280 4.7
2008-05-06 08:33:52 51°13.949 2°55.632 341.2 0.1 283 5.2
2008-05-06 08:33:57 51°13.949 2°55.632 341.1 0.1 293 -999
2008-05-06 08:34:02 51°13.949 2°55.632 341 0.1 304 -999
2008-05-06 08:34:07 51°13.949 2°55.632 340.9 0.1 299 -999
2008-05-06 08:34:12 51°13.949 2°55.631 340.7 0.1 295 -999
2008-05-06 08:34:17 51°13.949 2°55.631 340.6 0.1 299 -999
2008-05-06 08:34:22 51°13.95 2°55.631 340.4 0.1 306 -999
2008-05-06 08:34:27 51°13.95 2°55.631 340.3 0.1 309 -999
2008-05-06 08:34:32 51°13.95 2°55.631 340.1 0.1 309 -999
2008-05-06 08:34:37 51°13.95 2°55.63 339.8 0.1 310 -999
2008-05-06 08:34:42 51°13.95 2°55.63 339.6 0.1 319 10.2
2008-05-06 08:34:47 51°13.95 2°55.63 339.5 0.1 317 -999
2008-05-06 08:34:52 51°13.95 2°55.63 339.1 0.1 325 -999
2008-05-06 08:34:57 51°13.951 2°55.629 338.7 0.2 314 10.1
2008-05-06 08:35:02 51°13.951 2°55.629 338.3 0.1 332 -999
2008-05-06 08:35:07 51°13.951 2°55.629 338 0.1 320 -999
2008-05-06 08:35:12 51°13.951 2°55.629 337.5 0.1 338 10.2
2008-05-06 08:35:17 51°13.951 2°55.629 337.3 0.1 316 10.2
2008-05-06 08:35:22 51°13.952 2°55.628 337 0.1 341 -999
2008-05-06 08:35:27 51°13.952 2°55.628 336.7 0.2 324 -999
2008-05-06 08:35:32 51°13.952 2°55.628 336.3 0.1 344 -999
2008-05-06 08:35:37 51°13.952 2°55.628 336.1 0.1 318 -999
2008-05-06 08:35:42 51°13.952 2°55.628 336 0.1 339 -999
2008-05-06 08:35:47 51°13.952 2°55.628 335.8 0.1 311 -999
2008-05-06 08:35:52 51°13.953 2°55.628 335.6 0.1 326 -999
2008-05-06 08:35:57 51°13.953 2°55.627 335.4 0.1 310 10.1
2008-05-06 08:36:02 51°13.953 2°55.627 335.3 0.1 325 -999
2008-05-06 08:36:07 51°13.953 2°55.627 335.2 0.1 305 10.2
2008-05-06 08:36:12 51°13.953 2°55.627 335.2 0.1 314 10.1
2008-05-06 08:36:17 51°13.953 2°55.626 335.1 0.1 304 -999
2008-05-06 08:36:22 51°13.953 2°55.626 335 0.1 331 10.2
2008-05-06 08:36:27 51°13.953 2°55.626 334.9 0.1 289 10.1
2008-05-06 08:36:32 51°13.953 2°55.626 334.8 0.1 298 10.1
2008-05-06 08:36:37 51°13.953 2°55.626 334.7 0.1 303 -999
2008-05-06 08:36:42 51°13.953 2°55.625 334.6 0.1 308 -999
2008-05-06 08:36:47 51°13.954 2°55.625 334.5 0.2 308 -999
2008-05-06 08:36:52 51°13.954 2°55.625 334.3 0.2 306 10.1
2008-05-06 08:36:57 51°13.954 2°55.624 334.2 0.2 320 10.1
2008-05-06 08:37:02 51°13.954 2°55.624 333.9 0.2 304 10.2
2008-05-06 08:37:07 51°13.954 2°55.624 333.8 0.2 315 -999
2008-05-06 08:37:12 51°13.954 2°55.623 333.7 0.2 311 10
2008-05-06 08:37:17 51°13.955 2°55.623 333.6 0.3 317 -999
2008-05-06 08:37:22 51°13.955 2°55.622 333.6 0.3 316 10
2008-05-06 08:37:27 51°13.956 2°55.622 333.7 0.4 323 10
2008-05-06 08:37:32 51°13.956 2°55.621 333.7 0.7 328 -999
2008-05-06 08:37:37 51°13.957 2°55.62 333.3 1.1 331 -999
2008-05-06 08:37:42 51°13.959 2°55.618 332.5 1.7 329 10
2008-05-06 08:37:47 51°13.962 2°55.615 331.1 2.6 329 -999
2008-05-06 08:37:52 51°13.967 2°55.611 328.9 3.2 329 -999
2008-05-06 08:37:57 51°13.971 2°55.606 326.1 4.1 326 -999
2008-05-06 08:38:02 51°13.977 2°55.6 324.2 4.7 325 -999
2008-05-06 08:38:07 51°13.983 2°55.593 323 5.2 323 -999
2008-05-06 08:38:12 51°13.989 2°55.586 322.5 5.5 323 -999
2008-05-06 08:38:17 51°13.995 2°55.578 322.2 6 322 -999
2008-05-06 08:38:22 51°14.002 2°55.569 322 6.3 323 -999
2008-05-06 08:38:27 51°14.01 2°55.56 321.8 6.6 322 -999
2008-05-06 08:38:32 51°14.017 2°55.551 321.6 6.9 322 -999
2008-05-06 08:38:37 51°14.025 2°55.541 321.5 7.1 322 -999
2008-05-06 08:38:42 51°14.033 2°55.531 321.7 7.4 323 -999
2008-05-06 08:38:47 51°14.042 2°55.521 321.7 7.6 321 10
2008-05-06 08:38:52 51°14.05 2°55.51 321.6 7.7 322 5
2008-05-06 08:38:57 51°14.059 2°55.5 322.6 7.8 323 -999
2008-05-06 08:39:02 51°14.068 2°55.49 323.2 7.9 324 -999
2008-05-06 08:39:07 51°14.077 2°55.479 323.5 8 323 -999
2008-05-06 08:39:12 51°14.086 2°55.468 322.9 8.1 322 -999
2008-05-06 08:39:17 51°14.095 2°55.457 322.9 8.2 323 -999
2008-05-06 08:39:22 51°14.104 2°55.446 324.2 8.3 325 -999
2008-05-06 08:39:27 51°14.114 2°55.436 325.5 8.3 326 -999
2008-05-06 08:39:32 51°14.123 2°55.425 325.8 8.4 325 -999
2008-05-06 08:39:37 51°14.133 2°55.415 326.8 8.3 327 -999
2008-05-06 08:39:42 51°14.143 2°55.405 327.8 8.3 327 -999
2008-05-06 08:39:47 51°14.152 2°55.395 327.3 8.3 326 -999
2008-05-06 08:39:52 51°14.162 2°55.385 326.5 8.3 326 -999
2008-05-06 08:39:57 51°14.172 2°55.374 326.7 8.3 327 -999
2008-05-06 08:40:02 51°14.181 2°55.364 327.7 8.3 327 -999
2008-05-06 08:40:07 51°14.191 2°55.354 327.4 8.3 326 -999
2008-05-06 08:40:12 51°14.2 2°55.343 326.2 8.3 324 -999
2008-05-06 08:40:17 51°14.21 2°55.332 324.9 8.4 324 -999
2008-05-06 08:40:22 51°14.219 2°55.321 323.7 8.4 322 -999
2008-05-06 08:40:27 51°14.228 2°55.31 322.6 8.3 321 -999
2008-05-06 08:40:32 51°14.236 2°55.298 321.9 8.2 321 9.9
2008-05-06 08:40:36 51°14.243 2°55.289 321 7.9 320 9.9
2008-05-06 08:40:42 51°14.253 2°55.275 319.7 7.8 318 9.7
2008-05-06 08:40:47 51°14.26 2°55.264 318.3 7.6 317 9.7
2008-05-06 08:40:52 51°14.268 2°55.253 317.4 7.6 317 9.9
2008-05-06 08:40:57 51°14.275 2°55.241 317.1 7.5 316 9.4
2008-05-06 08:41:02 51°14.283 2°55.23 316.8 7.4 317 9.7
2008-05-06 08:41:07 51°14.29 2°55.218 316.5 7.4 315 9.9
2008-05-06 08:41:12 51°14.297 2°55.207 315.5 7.3 315 10.1
2008-05-06 08:41:17 51°14.304 2°55.196 314.3 7.3 314 10.4
2008-05-06 08:41:21 51°14.31 2°55.186 313.1 7.3 314 10.2
2008-05-06 08:41:27 51°14.318 2°55.172 312.6 7.2 313 10.4
2008-05-06 08:41:32 51°14.325 2°55.161 312.2 7.2 312 10.5
2008-05-06 08:41:37 51°14.331 2°55.149 311.6 7.2 311 10.5
2008-05-06 08:41:42 51°14.338 2°55.137 310.8 7.2 310 10.7
2008-05-06 08:41:47 51°14.344 2°55.124 309.6 7.4 309 10.8
2008-05-06 08:41:52 51°14.35 2°55.111 308.4 7.4 308 9.6
2008-05-06 08:41:57 51°14.357 2°55.098 307.4 7.5 307 10.1
2008-05-06 08:42:02 51°14.363 2°55.083 306.7 7.7 305 9.9
2008-05-06 08:42:07 51°14.369 2°55.069 305.7 8 303 10
2008-05-06 08:42:12 51°14.375 2°55.053 304.3 8.1 301 9.7
2008-05-06 08:42:17 51°14.38 2°55.037 301.8 8.3 298 9.7
2008-05-06 08:42:22 51°14.386 2°55.02 299.4 8.7 298 9.7
2008-05-06 08:42:27 51°14.392 2°55.002 299 9.1 298 9.6
2008-05-06 08:42:32 51°14.398 2°54.983 299.7 9.4 297 9.6
2008-05-06 08:42:37 51°14.404 2°54.964 299.9 9.7 297 9.9
2008-05-06 08:42:42 51°14.41 2°54.944 300.1 10 296 9.6
2008-05-06 08:42:47 51°14.417 2°54.924 300.4 10.3 298 10.1
2008-05-06 08:42:52 51°14.424 2°54.902 301 10.7 297 9.8
2008-05-06 08:42:56 51°14.43 2°54.885 301.7 11.1 299 9.8
2008-05-06 08:43:02 51°14.439 2°54.859 302.5 11.4 299 9.8
2008-05-06 08:43:07 51°14.447 2°54.837 302.8 11.6 299 9.8
2008-05-06 08:43:12 51°14.454 2°54.813 303.3 11.9 297 9.8
2008-05-06 08:43:17 51°14.461 2°54.788 302.1 12.1 293 9.8
2008-05-06 08:43:22 51°14.468 2°54.764 299.1 12.3 295 9.8
2008-05-06 08:43:27 51°14.474 2°54.738 298.2 12.5 292 9.7
2008-05-06 08:43:32 51°14.481 2°54.712 297.2 12.6 292 9.6
2008-05-06 08:43:37 51°14.487 2°54.686 296.8 12.7 291 9.7
2008-05-06 08:43:41 51°14.492 2°54.665 295.4 12.7 290 9.6
2008-05-06 08:43:47 51°14.499 2°54.633 294.6 12.8 289 9.6
2008-05-06 08:43:52 51°14.505 2°54.606 293.7 12.9 289 9.6
2008-05-06 08:43:57 51°14.511 2°54.579 293.4 12.9 289 9.5
2008-05-06 08:44:02 51°14.516 2°54.552 292.9 12.9 288 9.5
2008-05-06 08:44:07 51°14.521 2°54.525 291.7 12.9 287 9.5
2008-05-06 08:44:12 51°14.526 2°54.497 291.1 13 286 9.6
2008-05-06 08:44:17 51°14.532 2°54.469 290.4 13 287 9.5
2008-05-06 08:44:22 51°14.536 2°54.442 290 13 286 9.5
2008-05-06 08:44:27 51°14.541 2°54.414 289.7 13.1 285 10
2008-05-06 08:44:32 51°14.546 2°54.386 289.2 13.1 285 9.6
2008-05-06 08:44:37 51°14.549 2°54.357 288.3 13.1 282 9.6
2008-05-06 08:44:42 51°14.553 2°54.329 286.6 13.2 282 9.8
2008-05-06 08:44:47 51°14.557 2°54.3 285.5 13.2 281 9.7
2008-05-06 08:44:52 51°14.56 2°54.272 284.6 13.2 281 9.9
2008-05-06 08:44:57 51°14.563 2°54.243 284.2 13.2 280 9.9
2008-05-06 08:45:02 51°14.566 2°54.214 283.7 13.2 280 10.3
2008-05-06 08:45:07 51°14.569 2°54.185 283 13.3 279 9.9
2008-05-06 08:45:12 51°14.572 2°54.156 282.8 13.3 279 10
2008-05-06 08:45:17 51°14.575 2°54.127 282.6 13.3 279 9.9
2008-05-06 08:45:22 51°14.578 2°54.098 282.5 13.3 279 10
2008-05-06 08:45:27 51°14.581 2°54.069 282.7 13.3 279 10.1
2008-05-06 08:45:32 51°14.584 2°54.04 282.7 13.3 279 10.7
2008-05-06 08:45:37 51°14.587 2°54.012 282.7 13.2 280 10.7
2008-05-06 08:45:41 51°14.59 2°53.989 283 13.2 280 11
2008-05-06 08:45:47 51°14.593 2°53.954 283.4 13.2 280 10.5
2008-05-06 08:45:52 51°14.597 2°53.926 283.5 13 280 10
2008-05-06 08:45:57 51°14.6 2°53.897 283.6 13 280 10.1
2008-05-06 08:46:02 51°14.602 2°53.869 283.5 13.1 278 10.9
2008-05-06 08:46:07 51°14.605 2°53.84 281.7 13.1 277 9.8
2008-05-06 08:46:12 51°14.607 2°53.811 280.7 13 277 9.6
2008-05-06 08:46:17 51°14.609 2°53.783 280.1 13 276 9.6
2008-05-06 08:46:22 51°14.611 2°53.755 279.3 12.9 277 9.3
2008-05-06 08:46:27 51°14.612 2°53.726 279.3 13 275 8.9
2008-05-06 08:46:32 51°14.614 2°53.698 278.9 12.9 276 8.8
2008-05-06 08:46:37 51°14.616 2°53.669 278.7 12.8 275 8.2
2008-05-06 08:46:42 51°14.618 2°53.641 278.7 12.8 276 7.9
2008-05-06 08:46:47 51°14.619 2°53.613 278.7 12.7 275 7.8
2008-05-06 08:46:52 51°14.621 2°53.585 278.6 12.7 275 7.8
2008-05-06 08:46:57 51°14.623 2°53.557 278.5 12.7 275 7.7
2008-05-06 08:47:02 51°14.624 2°53.529 278.4 12.7 275 7.5
2008-05-06 08:47:07 51°14.626 2°53.501 278.3 12.7 276 7.5
2008-05-06 08:47:12 51°14.628 2°53.473 278.6 12.7 275 7.6
2008-05-06 08:47:16 51°14.629 2°53.451 278.6 12.7 276 7.6
2008-05-06 08:47:22 51°14.631 2°53.417 278.8 12.8 275 7.7
2008-05-06 08:47:27 51°14.633 2°53.389 278.7 12.8 275 7.7
2008-05-06 08:47:32 51°14.634 2°53.36 278.3 12.9 274 7.7
2008-05-06 08:47:37 51°14.635 2°53.332 277.5 12.9 274 7.8
2008-05-06 08:47:42 51°14.636 2°53.303 276.6 13 273 7.8
2008-05-06 08:47:47 51°14.637 2°53.275 276.1 13 273 7.8
2008-05-06 08:47:52 51°14.638 2°53.246 275.8 13 273 7.8
2008-05-06 08:47:57 51°14.639 2°53.217 275.7 13 273 7.8
2008-05-06 08:48:02 51°14.64 2°53.189 275.3 13 272 7.7
2008-05-06 08:48:07 51°14.64 2°53.16 275 12.9 272 7.9
2008-05-06 08:48:12 51°14.641 2°53.132 275 13 273 7.8
2008-05-06 08:48:17 51°14.642 2°53.103 275.1 13 273 7.8
2008-05-06 08:48:22 51°14.643 2°53.074 275.2 13 273 7.9
2008-05-06 08:48:27 51°14.644 2°53.046 275.7 13 273 8
2008-05-06 08:48:32 51°14.645 2°53.017 275.7 13.1 273 8
2008-05-06 08:48:37 51°14.646 2°52.988 275.8 13.1 273 8.2
2008-05-06 08:48:42 51°14.647 2°52.959 276.2 13.1 273 8.2
2008-05-06 08:48:47 51°14.647 2°52.93 276.1 13.1 272 8.1
2008-05-06 08:48:52 51°14.648 2°52.901 275.7 13.1 271 8.2
2008-05-06 08:48:57 51°14.648 2°52.872 274.9 13.1 270 8.2
2008-05-06 08:49:02 51°14.648 2°52.843 274 13.2 270 8.2
2008-05-06 08:49:07 51°14.647 2°52.814 273.2 13.2 270 8.4
2008-05-06 08:49:12 51°14.647 2°52.785 272.9 13.2 269 8.4
2008-05-06 08:49:17 51°14.647 2°52.755 272.5 13.2 268 8.4
2008-05-06 08:49:22 51°14.646 2°52.726 272.1 13.2 269 8.5
2008-05-06 08:49:27 51°14.645 2°52.697 271.6 13.2 266 8.5
2008-05-06 08:49:32 51°14.644 2°52.668 270.3 13.2 267 8.5
2008-05-06 08:49:37 51°14.642 2°52.638 269.5 13.3 265 8.5
2008-05-06 08:49:42 51°14.641 2°52.609 268.7 13.2 266 8.5
2008-05-06 08:49:47 51°14.64 2°52.58 268.3 13.2 265 8.8
2008-05-06 08:49:52 51°14.638 2°52.551 268 13.3 266 8.6
2008-05-06 08:49:57 51°14.636 2°52.522 267.8 13.3 265 8.6
2008-05-06 08:50:02 51°14.634 2°52.493 267.6 13.3 264 8.6
2008-05-06 08:50:07 51°14.632 2°52.463 266.3 13.3 262 8.6
2008-05-06 08:50:12 51°14.629 2°52.434 265.1 13.2 262 8.6
2008-05-06 08:50:17 51°14.627 2°52.406 264.2 13.2 262 8.6
2008-05-06 08:50:22 51°14.624 2°52.377 264.1 13.3 261 8.6
2008-05-06 08:50:27 51°14.621 2°52.348 263.4 13.2 262 8.7
2008-05-06 08:50:32 51°14.618 2°52.319 263.4 13.3 260 8.7
2008-05-06 08:50:37 51°14.615 2°52.29 262.9 13.3 261 8.7
2008-05-06 08:50:42 51°14.612 2°52.261 262.7 13.3 260 8.6
2008-05-06 08:50:47 51°14.609 2°52.231 262.6 13.3 261 8.7
2008-05-06 08:50:52 51°14.606 2°52.202 262.7 13.3 261 8.7
2008-05-06 08:50:57 51°14.603 2°52.173 262.8 13.4 262 8.7
2008-05-06 08:51:02 51°14.6 2°52.144 263.1 13.3 261 8.7
2008-05-06 08:51:07 51°14.598 2°52.115 263.2 13.3 261 8.7
2008-05-06 08:51:12 51°14.595 2°52.086 263.1 13.4 261 8.6
2008-05-06 08:51:17 51°14.592 2°52.057 263.3 13.3 261 8.6
2008-05-06 08:51:22 51°14.589 2°52.027 263.3 13.3 262 8.6
2008-05-06 08:51:27 51°14.586 2°51.998 263.7 13.3 261 8.7
2008-05-06 08:51:32 51°14.584 2°51.969 263.6 13.3 262 8.7
2008-05-06 08:51:37 51°14.581 2°51.94 263.4 13.3 261 8.7
2008-05-06 08:51:42 51°14.578 2°51.911 263.3 13.3 261 8.8
2008-05-06 08:51:47 51°14.575 2°51.882 263.3 13.3 262 8.7
2008-05-06 08:51:52 51°14.573 2°51.853 263.4 13.3 261 8.7
2008-05-06 08:51:57 51°14.57 2°51.824 263.4 13.3 262 8.8
2008-05-06 08:52:02 51°14.567 2°51.795 263.8 13.2 262 8.8
2008-05-06 08:52:07 51°14.565 2°51.766 263.8 13.3 262 8.8
2008-05-06 08:52:12 51°14.562 2°51.737 264 13.3 262 8.8
2008-05-06 08:52:17 51°14.56 2°51.708 263.8 13.3 262 8.8
2008-05-06 08:52:22 51°14.557 2°51.679 263.8 13.3 262 8.9
2008-05-06 08:52:27 51°14.555 2°51.65 264.1 13.3 262 8.9
2008-05-06 08:52:32 51°14.552 2°51.621 264.1 13.3 261 8.9
2008-05-06 08:52:37 51°14.549 2°51.591 263.8 13.3 262 8.9
2008-05-06 08:52:42 51°14.547 2°51.562 264.1 13.3 262 9
2008-05-06 08:52:47 51°14.544 2°51.533 264.3 13.3 262 8.9
2008-05-06 08:52:52 51°14.542 2°51.504 264.4 13.2 262 8.9
2008-05-06 08:52:57 51°14.54 2°51.475 264.6 13.2 262 9
2008-05-06 08:53:02 51°14.537 2°51.447 264.7 12.8 262 8.9
2008-05-06 08:53:07 51°14.535 2°51.422 264.6 11.8 262 8.9
2008-05-06 08:53:12 51°14.532 2°51.397 264.1 11.1 262 8.9
2008-05-06 08:53:17 51°14.53 2°51.375 264.1 10.5 261 9
2008-05-06 08:53:22 51°14.528 2°51.354 264 9.7 260 9
2008-05-06 08:53:27 51°14.526 2°51.334 263.1 9.1 259 9.1
2008-05-06 08:53:32 51°14.523 2°51.316 261.6 8.5 257 9.2
2008-05-06 08:53:37 51°14.52 2°51.3 259.6 7.9 255 9.2
2008-05-06 08:53:42 51°14.517 2°51.285 256.9 7.4 252 9.2
2008-05-06 08:53:47 51°14.514 2°51.27 253.8 6.9 252 9.2
2008-05-06 08:53:52 51°14.511 2°51.257 252.2 6.3 252 9.2
2008-05-06 08:53:57 51°14.508 2°51.245 252.7 6 253 9.3
2008-05-06 08:54:02 51°14.507 2°51.233 255.2 5.5 255 9.2
2008-05-06 08:54:07 51°14.505 2°51.222 259 4.9 258 9.3
2008-05-06 08:54:12 51°14.504 2°51.213 262.9 4.6 259 9.2
2008-05-06 08:54:17 51°14.503 2°51.204 267 4.2 261 9.3
2008-05-06 08:54:22 51°14.502 2°51.195 270.4 3.9 260 9.2
2008-05-06 08:54:27 51°14.501 2°51.187 271.5 3.6 259 9.3
2008-05-06 08:54:32 51°14.5 2°51.18 270.3 3.5 258 9.2
2008-05-06 08:54:37 51°14.499 2°51.172 268 3.5 255 9.3
2008-05-06 08:54:42 51°14.498 2°51.165 265.5 3.4 255 9.3
2008-05-06 08:54:47 51°14.496 2°51.158 263.8 3.3 254 9.3
2008-05-06 08:54:52 51°14.495 2°51.151 262.5 3.3 253 9.3
2008-05-06 08:54:57 51°14.494 2°51.144 261.7 3.3 253 9.4
2008-05-06 08:55:02 51°14.493 2°51.137 261 3.2 252 9.4
2008-05-06 08:55:07 51°14.491 2°51.131 260.3 3.1 251 9.3
2008-05-06 08:55:12 51°14.49 2°51.124 259.9 3.1 252 9.3
2008-05-06 08:55:17 51°14.489 2°51.118 259.8 3.1 251 9.3
2008-05-06 08:55:22 51°14.487 2°51.112 259.7 3 252 9.3
2008-05-06 08:55:27 51°14.486 2°51.106 259.9 2.9 251 9.3
2008-05-06 08:55:32 51°14.485 2°51.1 260.1 2.9 252 9.3
2008-05-06 08:55:37 51°14.483 2°51.093 260.3 2.9 251 9.3
2008-05-06 08:55:42 51°14.482 2°51.088 260.5 2.8 250 9.3
2008-05-06 08:55:47 51°14.481 2°51.082 261 2.8 250 9.4
2008-05-06 08:55:52 51°14.479 2°51.076 261.2 2.8 249 9.3
2008-05-06 08:55:57 51°14.478 2°51.07 261.5 2.8 252 9.3
2008-05-06 08:56:02 51°14.477 2°51.065 261.9 2.7 250 9.3
2008-05-06 08:56:07 51°14.476 2°51.059 262.4 2.7 250 9.4
2008-05-06 08:56:12 51°14.474 2°51.053 262.7 2.8 251 9.4
2008-05-06 08:56:17 51°14.473 2°51.046 263.1 3.1 252 9.4
2008-05-06 08:56:22 51°14.472 2°51.039 263.3 3.4 251 9.3
2008-05-06 08:56:27 51°14.47 2°51.031 263.1 3.6 254 9.3
2008-05-06 08:56:32 51°14.469 2°51.023 262.9 3.9 254 9.3
2008-05-06 08:56:36 51°14.468 2°51.015 262.5 4.2 255 9.3
2008-05-06 08:56:42 51°14.466 2°51.004 261.7 4.4 254 9.2
2008-05-06 08:56:47 51°14.464 2°50.994 261.1 4.6 255 9.3
2008-05-06 08:56:52 51°14.463 2°50.984 261 4.7 257 9.3
2008-05-06 08:56:57 51°14.461 2°50.974 262.1 4.7 257 9.3
2008-05-06 08:57:02 51°14.46 2°50.964 263.9 4.7 259 9.3
2008-05-06 08:57:07 51°14.459 2°50.954 266 4.6 261 9.3
2008-05-06 08:57:12 51°14.458 2°50.944 268.2 4.5 261 9.3
2008-05-06 08:57:17 51°14.457 2°50.935 269.8 4.4 262 9.4
2008-05-06 08:57:21 51°14.456 2°50.927 270.8 4.3 262 9.3
2008-05-06 08:57:27 51°14.455 2°50.916 271.7 4.2 262 9.3
2008-05-06 08:57:32 51°14.455 2°50.907 272.6 4.1 263 9.4
2008-05-06 08:57:37 51°14.454 2°50.898 273.4 4 263 9.4
2008-05-06 08:57:42 51°14.454 2°50.89 274.2 4 264 9.4
2008-05-06 08:57:47 51°14.453 2°50.881 275 3.9 264 9.4
2008-05-06 08:57:52 51°14.453 2°50.873 275.7 3.8 264 9.5
2008-05-06 08:57:57 51°14.452 2°50.865 276.4 3.8 264 9.4
2008-05-06 08:58:02 51°14.451 2°50.856 277.2 3.7 264 9.4
2008-05-06 08:58:07 51°14.451 2°50.849 277.8 3.6 264 9.4
2008-05-06 08:58:12 51°14.451 2°50.841 278.2 3.5 265 9.4
2008-05-06 08:58:17 51°14.45 2°50.833 279.1 3.5 265 9.5
2008-05-06 08:58:22 51°14.45 2°50.826 279.6 3.4 264 9.5
2008-05-06 08:58:27 51°14.449 2°50.818 280 3.4 266 9.4
2008-05-06 08:58:32 51°14.449 2°50.811 280.5 3.4 264 9.5
2008-05-06 08:58:37 51°14.448 2°50.804 281 3.3 265 9.5
2008-05-06 08:58:42 51°14.448 2°50.796 281.4 3.2 265 9.5
2008-05-06 08:58:47 51°14.448 2°50.789 281.7 3.2 265 9.5
2008-05-06 08:58:52 51°14.447 2°50.782 282.1 3.1 265 9.6
2008-05-06 08:58:57 51°14.447 2°50.775 282.5 3.1 265 9.6
2008-05-06 08:59:02 51°14.447 2°50.769 283 3 265 9.6
2008-05-06 08:59:07 51°14.446 2°50.762 283.4 3 264 9.6
2008-05-06 08:59:12 51°14.446 2°50.756 283.8 2.9 265 9.6
2008-05-06 08:59:17 51°14.445 2°50.749 284.1 2.9 264 9.6
2008-05-06 08:59:21 51°14.445 2°50.744 284.4 2.9 264 9.5
2008-05-06 08:59:27 51°14.445 2°50.736 284.6 2.8 264 9.6
2008-05-06 08:59:32 51°14.444 2°50.73 285.1 2.8 264 9.5
2008-05-06 08:59:37 51°14.444 2°50.724 285.2 2.8 265 9.5
2008-05-06 08:59:42 51°14.443 2°50.718 285.2 2.9 264 9.6
2008-05-06 08:59:47 51°14.443 2°50.712 285.2 2.9 263 9.6
2008-05-06 08:59:52 51°14.442 2°50.705 285.2 2.9 263 9.6
2008-05-06 08:59:57 51°14.442 2°50.699 284.9 2.9 263 9.6
2008-05-06 09:00:02 51°14.441 2°50.692 284.5 2.9 263 9.6
2008-05-06 09:00:07 51°14.441 2°50.685 284 3 263 9.6
2008-05-06 09:00:12 51°14.44 2°50.679 283.4 3 263 9.5
2008-05-06 09:00:17 51°14.44 2°50.672 282.6 3 263 9.6
2008-05-06 09:00:22 51°14.439 2°50.666 281.6 3 261 9.7
2008-05-06 09:00:27 51°14.438 2°50.659 280.8 3.1 261 9.6
2008-05-06 09:00:32 51°14.437 2°50.652 279.1 3.1 259 9.6
2008-05-06 09:00:37 51°14.437 2°50.645 278.2 3.1 261 9.6
2008-05-06 09:00:42 51°14.436 2°50.638 277.6 3.2 259 9.7
2008-05-06 09:00:47 51°14.435 2°50.631 276.7 3.2 260 9.7
2008-05-06 09:00:52 51°14.434 2°50.624 276.1 3.2 259 9.6
2008-05-06 09:00:57 51°14.433 2°50.618 275.6 3.2 259 9.6
2008-05-06 09:01:02 51°14.432 2°50.61 275.3 3.2 258 9.6
2008-05-06 09:01:07 51°14.431 2°50.603 275 3.2 259 9.7
2008-05-06 09:01:12 51°14.431 2°50.596 274.8 3.3 259 9.6
2008-05-06 09:01:17 51°14.43 2°50.589 274.7 3.3 260 9.7
2008-05-06 09:01:22 51°14.429 2°50.582 274.6 3.3 259 9.7
2008-05-06 09:01:27 51°14.428 2°50.575 274.7 3.3 259 9.7
2008-05-06 09:01:32 51°14.427 2°50.568 274.8 3.3 259 9.7
2008-05-06 09:01:37 51°14.426 2°50.561 275.1 3.3 259 9.7
2008-05-06 09:01:42 51°14.426 2°50.554 275.4 3.3 259 9.7
2008-05-06 09:01:47 51°14.425 2°50.546 275.6 3.3 260 9.8
2008-05-06 09:01:52 51°14.424 2°50.539 275.9 3.3 261 9.7
2008-05-06 09:01:57 51°14.423 2°50.532 276.3 3.3 260 9.7
2008-05-06 09:02:02 51°14.422 2°50.525 276.6 3.3 261 9.7
2008-05-06 09:02:07 51°14.422 2°50.518 277.1 3.3 261 9.7
2008-05-06 09:02:12 51°14.421 2°50.51 277.4 3.3 262 9.8
2008-05-06 09:02:17 51°14.42 2°50.503 277.7 3.3 261 9.7
2008-05-06 09:02:22 51°14.419 2°50.496 277.7 3.3 261 9.7
2008-05-06 09:02:27 51°14.419 2°50.489 277.9 3.3 261 9.8
2008-05-06 09:02:32 51°14.418 2°50.482 278.1 3.3 260 9.7
2008-05-06 09:02:37 51°14.417 2°50.475 278.1 3.3 261 9.8
2008-05-06 09:02:42 51°14.416 2°50.467 278.2 3.3 261 9.7
2008-05-06 09:02:47 51°14.416 2°50.46 278.2 3.3 260 9.8
2008-05-06 09:02:52 51°14.415 2°50.453 278.1 3.3 261 9.9
2008-05-06 09:02:57 51°14.414 2°50.446 278 3.3 260 9.8
2008-05-06 09:03:02 51°14.413 2°50.439 277.8 3.3 260 9.8
2008-05-06 09:03:07 51°14.412 2°50.431 277.3 3.3 260 9.8
2008-05-06 09:03:12 51°14.412 2°50.424 277 3.3 260 9.7
2008-05-06 09:03:17 51°14.411 2°50.417 276.4 3.3 259 9.8
2008-05-06 09:03:22 51°14.41 2°50.41 276 3.3 258 9.9
2008-05-06 09:03:27 51°14.409 2°50.402 275.7 3.4 258 9.9
2008-05-06 09:03:32 51°14.408 2°50.395 275.4 3.4 258 9.9
2008-05-06 09:03:37 51°14.407 2°50.388 274.8 3.4 259 9.8
2008-05-06 09:03:42 51°14.406 2°50.381 274.2 3.4 257 9.8
2008-05-06 09:03:47 51°14.405 2°50.373 273.8 3.3 258 9.9
2008-05-06 09:03:52 51°14.404 2°50.366 273.5 3.3 258 9.9
2008-05-06 09:03:57 51°14.403 2°50.359 273.3 3.3 257 9.9
2008-05-06 09:04:02 51°14.402 2°50.352 273 3.3 256 9.9
2008-05-06 09:04:07 51°14.4 2°50.345 272.7 3.3 256 10
2008-05-06 09:04:12 51°14.399 2°50.337 272.3 3.3 256 10
2008-05-06 09:04:17 51°14.398 2°50.33 272.1 3.3 256 10
2008-05-06 09:04:22 51°14.397 2°50.323 271.9 3.3 257 9.9
2008-05-06 09:04:27 51°14.396 2°50.316 271.8 3.3 255 10
2008-05-06 09:04:32 51°14.395 2°50.309 271.7 3.3 256 9.9
2008-05-06 09:04:37 51°14.394 2°50.302 271.6 3.3 255 9.9
2008-05-06 09:04:42 51°14.393 2°50.295 271.5 3.3 256 9.9
2008-05-06 09:04:47 51°14.391 2°50.288 271.4 3.3 255 9.9
2008-05-06 09:04:52 51°14.39 2°50.281 271.2 3.3 255 9.9
2008-05-06 09:04:57 51°14.389 2°50.274 271 3.3 254 10
2008-05-06 09:05:02 51°14.388 2°50.267 270.9 3.3 255 10
2008-05-06 09:05:07 51°14.387 2°50.26 270.6 3.3 255 9.9
2008-05-06 09:05:12 51°14.386 2°50.253 270.5 3.3 255 9.9
2008-05-06 09:05:17 51°14.384 2°50.246 270.4 3.3 254 10
2008-05-06 09:05:22 51°14.383 2°50.239 270.2 3.3 254 10
2008-05-06 09:05:27 51°14.382 2°50.232 270.1 3.3 254 10
2008-05-06 09:05:32 51°14.381 2°50.225 269.9 3.3 254 10
2008-05-06 09:05:37 51°14.379 2°50.218 269.7 3.3 255 10
2008-05-06 09:05:42 51°14.378 2°50.211 269.6 3.3 254 10
2008-05-06 09:05:47 51°14.377 2°50.204 269.5 3.3 254 10
2008-05-06 09:05:52 51°14.376 2°50.197 269.4 3.3 254 10.1
2008-05-06 09:05:57 51°14.374 2°50.19 269.2 3.3 254 10
2008-05-06 09:06:02 51°14.373 2°50.183 269 3.3 254 10
2008-05-06 09:06:07 51°14.372 2°50.176 268.7 3.3 254 10
2008-05-06 09:06:12 51°14.37 2°50.169 268.7 3.3 254 10.1
2008-05-06 09:06:17 51°14.369 2°50.162 268.5 3.3 254 10
2008-05-06 09:06:22 51°14.368 2°50.155 268.4 3.3 253 10.1
2008-05-06 09:06:27 51°14.367 2°50.148 268.4 3.3 254 9.9
2008-05-06 09:06:32 51°14.365 2°50.142 268.2 3.3 253 10.1
2008-05-06 09:06:37 51°14.364 2°50.135 267.9 3.3 254 10
2008-05-06 09:06:42 51°14.363 2°50.127 267.8 3.3 253 10
2008-05-06 09:06:47 51°14.361 2°50.121 267.5 3.3 253 10
2008-05-06 09:06:52 51°14.36 2°50.114 267.4 3.3 252 10.1
2008-05-06 09:06:57 51°14.358 2°50.107 267.3 3.3 252 10.1
2008-05-06 09:07:02 51°14.357 2°50.1 266.9 3.3 252 10.1
2008-05-06 09:07:07 51°14.356 2°50.093 266.7 3.3 253 10
2008-05-06 09:07:12 51°14.354 2°50.086 266.4 3.3 252 10.1
2008-05-06 09:07:17 51°14.353 2°50.079 266.3 3.3 252 10.1
2008-05-06 09:07:22 51°14.352 2°50.072 266.1 3.3 252 10.1
2008-05-06 09:07:27 51°14.35 2°50.065 265.9 3.3 252 10.1
2008-05-06 09:07:32 51°14.349 2°50.058 265.8 3.3 252 10.1
2008-05-06 09:07:37 51°14.347 2°50.051 265.5 3.3 252 10.2
2008-05-06 09:07:42 51°14.346 2°50.044 265.4 3.3 252 10.1
2008-05-06 09:07:47 51°14.345 2°50.037 265.2 3.3 251 10.2
2008-05-06 09:07:52 51°14.343 2°50.031 265.1 3.3 251 10.1
2008-05-06 09:07:57 51°14.342 2°50.024 264.8 3.3 251 10.1
2008-05-06 09:08:02 51°14.34 2°50.017 264.8 3.3 251 10.2
2008-05-06 09:08:07 51°14.339 2°50.01 264.8 3.3 251 10.2
2008-05-06 09:08:12 51°14.337 2°50.003 264.6 3.3 250 10.2
2008-05-06 09:08:17 51°14.336 2°49.996 264.4 3.3 251 10.1
2008-05-06 09:08:22 51°14.334 2°49.989 264.2 3.3 251 10.1
2008-05-06 09:08:27 51°14.333 2°49.982 264.1 3.3 251 10.2
2008-05-06 09:08:32 51°14.331 2°49.975 264.1 3.3 251 10.2
2008-05-06 09:08:37 51°14.33 2°49.968 263.9 3.3 251 10.2
2008-05-06 09:08:42 51°14.328 2°49.962 263.7 3.3 250 10.2
2008-05-06 09:08:47 51°14.327 2°49.955 263.5 3.3 251 10.2
2008-05-06 09:08:52 51°14.325 2°49.948 263.4 3.3 249 10.2
2008-05-06 09:08:57 51°14.323 2°49.941 263.3 3.3 250 10.2
2008-05-06 09:09:02 51°14.322 2°49.934 263.2 3.3 250 10.3
2008-05-06 09:09:07 51°14.32 2°49.927 263 3.3 250 10.3
2008-05-06 09:09:12 51°14.319 2°49.92 262.9 3.3 250 10.4
2008-05-06 09:09:17 51°14.317 2°49.913 262.8 3.3 250 10.3
2008-05-06 09:09:22 51°14.316 2°49.907 262.7 3.3 250 10.4
2008-05-06 09:09:27 51°14.314 2°49.9 262.7 3.3 250 10.3
2008-05-06 09:09:32 51°14.313 2°49.893 262.6 3.3 250 10.3
2008-05-06 09:09:37 51°14.311 2°49.886 262.6 3.3 249 10.3
2008-05-06 09:09:42 51°14.31 2°49.879 262.4 3.3 250 10.3
2008-05-06 09:09:47 51°14.308 2°49.872 262.2 3.3 249 10.3
2008-05-06 09:09:52 51°14.306 2°49.865 261.9 3.3 250 10.3
2008-05-06 09:09:57 51°14.305 2°49.859 261.9 3.3 250 10.3
2008-05-06 09:10:02 51°14.303 2°49.852 261.8 3.3 250 10.4
2008-05-06 09:10:07 51°14.301 2°49.845 261.8 3.3 249 10.4
2008-05-06 09:10:12 51°14.3 2°49.838 261.6 3.3 249 10.4
2008-05-06 09:10:17 51°14.298 2°49.831 261.6 3.3 249 10.4
2008-05-06 09:10:22 51°14.297 2°49.824 261.5 3.3 249 10.3
2008-05-06 09:10:27 51°14.295 2°49.818 261.3 3.3 249 10.3
2008-05-06 09:10:32 51°14.293 2°49.811 261.2 3.3 249 10.4
2008-05-06 09:10:37 51°14.292 2°49.804 261.2 3.3 249 10.4
2008-05-06 09:10:42 51°14.29 2°49.797 261 3.3 248 10.4
2008-05-06 09:10:47 51°14.288 2°49.79 260.8 3.3 248 10.5
2008-05-06 09:10:52 51°14.286 2°49.784 260.7 3.3 248 10.5
2008-05-06 09:10:57 51°14.285 2°49.777 260.5 3.3 248 10.4
2008-05-06 09:11:02 51°14.283 2°49.77 260.2 3.3 247 10.5
2008-05-06 09:11:07 51°14.281 2°49.763 260 3.3 248 10.5
2008-05-06 09:11:12 51°14.279 2°49.756 259.7 3.3 248 10.5
2008-05-06 09:11:17 51°14.278 2°49.75 259.7 3.3 247 10.5
2008-05-06 09:11:22 51°14.276 2°49.743 259.6 3.3 247 10.5
2008-05-06 09:11:27 51°14.274 2°49.736 259.6 3.3 248 10.5
2008-05-06 09:11:32 51°14.272 2°49.729 259.6 3.3 248 10.5
2008-05-06 09:11:37 51°14.271 2°49.723 259.6 3.3 247 10.5
2008-05-06 09:11:42 51°14.269 2°49.716 259.6 3.3 248 10.5
2008-05-06 09:11:47 51°14.267 2°49.709 259.6 3.3 248 10.6
2008-05-06 09:11:52 51°14.265 2°49.702 259.6 3.3 248 10.6
2008-05-06 09:11:57 51°14.264 2°49.696 259.6 3.3 247 10.5
2008-05-06 09:12:02 51°14.262 2°49.689 259.7 3.3 247 10.5
2008-05-06 09:12:07 51°14.26 2°49.682 259.7 3.3 247 10.5
2008-05-06 09:12:12 51°14.259 2°49.676 259.6 3.3 248 10.6
2008-05-06 09:12:17 51°14.257 2°49.669 259.5 3.3 247 10.5
2008-05-06 09:12:22 51°14.255 2°49.662 259.4 3.3 247 10.6
2008-05-06 09:12:27 51°14.253 2°49.656 259.3 3.3 247 10.6
2008-05-06 09:12:32 51°14.251 2°49.649 259.3 3.3 247 10.6
2008-05-06 09:12:37 51°14.25 2°49.642 259.3 3.3 247 10.7
2008-05-06 09:12:42 51°14.248 2°49.636 259.3 3.3 247 10.6
2008-05-06 09:12:47 51°14.246 2°49.629 259.4 3.3 247 10.6
2008-05-06 09:12:52 51°14.244 2°49.622 259.5 3.3 246 10.6
2008-05-06 09:12:57 51°14.243 2°49.616 259.1 3.3 246 10.5
2008-05-06 09:13:02 51°14.241 2°49.609 258.9 3.3 247 10.5
2008-05-06 09:13:07 51°14.239 2°49.602 258.8 3.3 247 10.5
2008-05-06 09:13:12 51°14.237 2°49.596 258.6 3.3 247 10.6
2008-05-06 09:13:17 51°14.235 2°49.589 258.5 3.3 247 10.6
2008-05-06 09:13:22 51°14.234 2°49.583 258.3 3.3 247 10.6
2008-05-06 09:13:27 51°14.232 2°49.576 258.3 3.3 246 10.6
2008-05-06 09:13:32 51°14.23 2°49.569 258.3 3.3 246 10.6
2008-05-06 09:13:37 51°14.228 2°49.563 258.2 3.3 246 10.6
2008-05-06 09:13:42 51°14.226 2°49.556 258.1 3.3 246 10.6
2008-05-06 09:13:47 51°14.224 2°49.549 258.1 3.3 247 10.6
2008-05-06 09:13:52 51°14.223 2°49.543 258 3.3 246 10.6
2008-05-06 09:13:57 51°14.221 2°49.536 258 3.2 247 10.7
2008-05-06 09:14:02 51°14.219 2°49.53 258 3.3 247 10.7
2008-05-06 09:14:07 51°14.217 2°49.523 257.9 3.3 246 10.6
2008-05-06 09:14:12 51°14.216 2°49.517 258 3.3 246 10.6
2008-05-06 09:14:17 51°14.214 2°49.51 258 3.3 246 10.6
2008-05-06 09:14:22 51°14.212 2°49.503 257.8 3.3 246 10.6
2008-05-06 09:14:27 51°14.21 2°49.497 257.8 3.3 246 10.5
2008-05-06 09:14:32 51°14.208 2°49.49 257.6 3.3 246 10.5
2008-05-06 09:14:37 51°14.206 2°49.484 257.7 3.3 246 10.5
2008-05-06 09:14:42 51°14.205 2°49.477 257.7 3.3 246 10.6
2008-05-06 09:14:47 51°14.203 2°49.47 257.6 3.3 246 10.6
2008-05-06 09:14:52 51°14.201 2°49.464 257.6 3.3 247 10.5
2008-05-06 09:14:57 51°14.199 2°49.457 257.6 3.3 246 10.6
2008-05-06 09:15:02 51°14.197 2°49.451 257.6 3.3 247 10.7
2008-05-06 09:15:07 51°14.195 2°49.444 257.6 3.3 246 10.5
2008-05-06 09:15:12 51°14.194 2°49.438 257.7 3.2 246 10.7
2008-05-06 09:15:17 51°14.192 2°49.431 257.8 3.2 246 10.7
2008-05-06 09:15:21 51°14.19 2°49.426 257.9 3.3 246 10.6
2008-05-06 09:15:27 51°14.188 2°49.418 257.7 3.2 246 10.5
2008-05-06 09:15:32 51°14.186 2°49.411 257.7 3.3 246 10.6
2008-05-06 09:15:37 51°14.185 2°49.405 257.8 3.3 247 10.5
2008-05-06 09:15:42 51°14.183 2°49.398 257.8 3.2 247 10.6
2008-05-06 09:15:47 51°14.181 2°49.392 257.8 3.2 246 10.6
2008-05-06 09:15:52 51°14.179 2°49.385 257.8 3.2 247 10.7
2008-05-06 09:15:57 51°14.177 2°49.378 258 3.2 247 10.7
2008-05-06 09:16:02 51°14.176 2°49.372 258.1 3.2 247 10.7
2008-05-06 09:16:07 51°14.174 2°49.365 258.2 3.3 246 10.7
2008-05-06 09:16:12 51°14.172 2°49.359 258.2 3.2 247 10.6
2008-05-06 09:16:17 51°14.17 2°49.352 258.3 3.2 247 10.7
2008-05-06 09:16:22 51°14.168 2°49.345 258.3 3.3 247 10.7
2008-05-06 09:16:27 51°14.167 2°49.338 258.4 3.3 248 10.6
2008-05-06 09:16:32 51°14.165 2°49.332 258.6 3.2 248 10.6
2008-05-06 09:16:37 51°14.163 2°49.325 258.7 3.2 247 10.7
2008-05-06 09:16:42 51°14.161 2°49.319 258.7 3.3 247 10.7
2008-05-06 09:16:47 51°14.16 2°49.312 258.9 3.3 247 10.6
2008-05-06 09:16:52 51°14.158 2°49.305 259 3.2 247 10.6
2008-05-06 09:16:57 51°14.156 2°49.299 259 3.2 246 10.7
2008-05-06 09:17:02 51°14.154 2°49.292 259 3.2 247 10.7
2008-05-06 09:17:07 51°14.153 2°49.286 259 3.3 247 10.7
2008-05-06 09:17:12 51°14.151 2°49.279 259 3.2 247 10.8
2008-05-06 09:17:17 51°14.149 2°49.272 259 3.2 247 10.8
2008-05-06 09:17:22 51°14.147 2°49.266 259 3.2 247 10.8
2008-05-06 09:17:27 51°14.145 2°49.259 259 3.2 247 10.7
2008-05-06 09:17:32 51°14.144 2°49.253 259 3.2 247 10.7
2008-05-06 09:17:37 51°14.142 2°49.246 259 3.2 247 10.8
2008-05-06 09:17:42 51°14.14 2°49.239 258.9 3.3 247 10.7
2008-05-06 09:17:47 51°14.139 2°49.233 258.9 3.2 247 10.7
2008-05-06 09:17:52 51°14.137 2°49.226 259 3.2 247 10.8
2008-05-06 09:17:57 51°14.135 2°49.22 259.1 3.2 247 10.8
2008-05-06 09:18:02 51°14.133 2°49.213 259.3 3.2 248 10.8
2008-05-06 09:18:07 51°14.132 2°49.206 259.5 3.3 248 10.7
2008-05-06 09:18:12 51°14.13 2°49.2 259.5 3.3 248 10.7
2008-05-06 09:18:17 51°14.128 2°49.193 259.6 3.2 248 10.7
2008-05-06 09:18:22 51°14.127 2°49.187 259.7 3.2 248 10.8
2008-05-06 09:18:27 51°14.125 2°49.18 260 3.2 248 10.8
2008-05-06 09:18:32 51°14.123 2°49.173 260.2 3.3 248 10.8
2008-05-06 09:18:37 51°14.121 2°49.167 260.4 3.2 248 10.8
2008-05-06 09:18:42 51°14.12 2°49.16 260.5 3.2 248 10.9
2008-05-06 09:18:47 51°14.118 2°49.153 260.5 3.2 248 10.8
2008-05-06 09:18:52 51°14.116 2°49.147 260.5 3.2 248 10.8
2008-05-06 09:18:57 51°14.114 2°49.14 260.5 3.2 246 10.9
2008-05-06 09:19:02 51°14.113 2°49.134 260.4 3.2 247 10.9
2008-05-06 09:19:07 51°14.111 2°49.127 260.4 3.2 248 10.8
2008-05-06 09:19:12 51°14.109 2°49.12 260 3.2 248 10.7
2008-05-06 09:19:17 51°14.108 2°49.114 260 3.2 248 10.8
2008-05-06 09:19:22 51°14.106 2°49.107 259.9 3.2 247 10.8
2008-05-06 09:19:27 51°14.104 2°49.101 259.7 3.2 247 10.8
2008-05-06 09:19:32 51°14.103 2°49.094 259.7 3.2 247 10.9
2008-05-06 09:19:37 51°14.101 2°49.088 259.7 3.2 247 10.9
2008-05-06 09:19:42 51°14.099 2°49.081 259.7 3.2 247 11
2008-05-06 09:19:47 51°14.097 2°49.074 259.8 3.2 248 10.9
2008-05-06 09:19:52 51°14.095 2°49.068 259.9 3.3 247 10.8
2008-05-06 09:19:57 51°14.094 2°49.061 260 3.2 249 10.9
2008-05-06 09:20:02 51°14.092 2°49.055 260.1 3.2 247 10.7
2008-05-06 09:20:07 51°14.09 2°49.048 260.3 3.2 248 10.7
2008-05-06 09:20:12 51°14.089 2°49.041 260.4 3.3 247 10.9
2008-05-06 09:20:17 51°14.087 2°49.035 260.5 3.3 248 11
2008-05-06 09:20:22 51°14.085 2°49.028 260.5 3.3 247 10.7
2008-05-06 09:20:27 51°14.084 2°49.022 260.6 3.2 248 10.8
2008-05-06 09:20:32 51°14.082 2°49.015 260.8 3.2 248 10.9
2008-05-06 09:20:37 51°14.08 2°49.008 260.9 3.2 248 10.9
2008-05-06 09:20:42 51°14.079 2°49.002 260.8 3.2 248 10.8
2008-05-06 09:20:47 51°14.077 2°48.995 261.1 3.2 249 10.8
2008-05-06 09:20:52 51°14.076 2°48.988 261.2 3.2 247 10.8
2008-05-06 09:20:57 51°14.074 2°48.982 261.6 3.2 248 10.9
2008-05-06 09:21:02 51°14.072 2°48.975 261.8 3.2 248 11
2008-05-06 09:21:07 51°14.071 2°48.969 261.9 3.2 249 10.8
2008-05-06 09:21:12 51°14.069 2°48.962 261.9 3.2 249 11
2008-05-06 09:21:17 51°14.068 2°48.955 262 3.2 249 10.9
2008-05-06 09:21:22 51°14.066 2°48.949 262.2 3.2 249 10.8
2008-05-06 09:21:27 51°14.064 2°48.942 262.5 3.2 249 10.8
2008-05-06 09:21:32 51°14.063 2°48.935 262.6 3.2 248 10.9
2008-05-06 09:21:37 51°14.061 2°48.929 262.9 3.2 249 11
2008-05-06 09:21:42 51°14.06 2°48.922 263.1 3.2 249 10.9
2008-05-06 09:21:47 51°14.058 2°48.916 263.3 3.2 249 10.9
2008-05-06 09:21:52 51°14.056 2°48.909 263.6 3.2 249 11
2008-05-06 09:21:57 51°14.055 2°48.903 263.9 3.2 249 11.1
2008-05-06 09:22:02 51°14.053 2°48.896 264.1 3.2 249 11.1
2008-05-06 09:22:07 51°14.052 2°48.889 264.3 3.2 250 10.8
2008-05-06 09:22:12 51°14.05 2°48.883 264.4 3.2 249 11.1
2008-05-06 09:22:17 51°14.049 2°48.876 264.6 3.2 250 11.1
2008-05-06 09:22:22 51°14.047 2°48.87 264.8 3.2 251 11
2008-05-06 09:22:27 51°14.046 2°48.863 265 3.2 249 11
2008-05-06 09:22:32 51°14.044 2°48.856 265.3 3.2 249 11.2
2008-05-06 09:22:37 51°14.043 2°48.85 265.4 3.2 250 11.1
2008-05-06 09:22:42 51°14.042 2°48.843 265.5 3.2 250 11
2008-05-06 09:22:47 51°14.04 2°48.837 265.8 3.1 250 11
2008-05-06 09:22:52 51°14.039 2°48.83 266 3.1 250 11
2008-05-06 09:22:57 51°14.037 2°48.824 266.3 3.2 250 11.1
2008-05-06 09:23:02 51°14.036 2°48.817 266.5 3.2 250 11
2008-05-06 09:23:07 51°14.034 2°48.81 266.7 3.2 251 11.1
2008-05-06 09:23:12 51°14.033 2°48.804 266.9 3.1 251 11
2008-05-06 09:23:17 51°14.031 2°48.797 267 3.2 251 11.1
2008-05-06 09:23:22 51°14.03 2°48.791 267.2 3.2 251 11.1
2008-05-06 09:23:27 51°14.029 2°48.784 267.3 3.1 251 11
2008-05-06 09:23:32 51°14.027 2°48.778 267.5 3.2 250 11.1
2008-05-06 09:23:37 51°14.026 2°48.771 267.8 3.1 251 11.2
2008-05-06 09:23:42 51°14.024 2°48.765 268 3.2 250 11.1
2008-05-06 09:23:47 51°14.023 2°48.758 268.3 3.1 251 11
2008-05-06 09:23:52 51°14.022 2°48.752 268.3 3.1 250 10.8
2008-05-06 09:23:57 51°14.02 2°48.745 268.2 3.1 251 11
2008-05-06 09:24:02 51°14.019 2°48.739 268.1 3.1 251 11
2008-05-06 09:24:07 51°14.017 2°48.732 268.1 3.1 251 11
2008-05-06 09:24:12 51°14.016 2°48.726 268.2 3.1 252 11.1
2008-05-06 09:24:17 51°14.015 2°48.719 268.5 3.1 251 11.1
2008-05-06 09:24:22 51°14.013 2°48.713 268.6 3.1 252 11.1
2008-05-06 09:24:27 51°14.012 2°48.706 268.9 3.1 252 11.1
2008-05-06 09:24:32 51°14.011 2°48.699 269.2 3.1 253 11.1
2008-05-06 09:24:37 51°14.009 2°48.693 269.3 3.1 252 11.1
2008-05-06 09:24:42 51°14.008 2°48.686 269.6 3.1 253 11.1
2008-05-06 09:24:47 51°14.007 2°48.68 269.9 3.1 252 11
2008-05-06 09:24:52 51°14.006 2°48.673 270.1 3.1 253 11.1
2008-05-06 09:24:57 51°14.004 2°48.667 270.2 3.1 251 11.1
2008-05-06 09:25:02 51°14.003 2°48.66 270.3 3.1 252 11.1
2008-05-06 09:25:07 51°14.002 2°48.654 270.3 3.1 253 11.1
2008-05-06 09:25:12 51°14.001 2°48.647 270.1 3.1 253 11.1
2008-05-06 09:25:17 51°13.999 2°48.641 270.1 3.1 254 11.1
2008-05-06 09:25:22 51°13.998 2°48.634 270 3.1 252 11.2
2008-05-06 09:25:27 51°13.997 2°48.628 269.9 3.1 252 11.1
2008-05-06 09:25:32 51°13.995 2°48.621 269.9 3.1 253 11.1
2008-05-06 09:25:37 51°13.994 2°48.615 269.9 3.1 252 11.1
2008-05-06 09:25:42 51°13.993 2°48.608 269.9 3.1 253 11.1
2008-05-06 09:25:47 51°13.992 2°48.601 269.8 3.1 253 11.1
2008-05-06 09:25:52 51°13.99 2°48.595 269.9 3.1 253 11.1
2008-05-06 09:25:57 51°13.989 2°48.588 270.2 3.1 253 11
2008-05-06 09:26:02 51°13.988 2°48.582 270.5 3.1 253 10.9
2008-05-06 09:26:07 51°13.986 2°48.575 270.7 3.1 254 11
2008-05-06 09:26:12 51°13.985 2°48.569 271 3.1 253 11.1
2008-05-06 09:26:17 51°13.984 2°48.562 271.4 3.1 254 11
2008-05-06 09:26:22 51°13.983 2°48.555 271.8 3.1 254 11
2008-05-06 09:26:27 51°13.982 2°48.549 272.1 3.1 254 11
2008-05-06 09:26:32 51°13.98 2°48.542 272.4 3.1 253 11.1
2008-05-06 09:26:37 51°13.979 2°48.536 272.8 3 255 11.1
2008-05-06 09:26:42 51°13.978 2°48.529 273 3.1 253 11
2008-05-06 09:26:47 51°13.977 2°48.523 273 3 254 11.1
2008-05-06 09:26:52 51°13.976 2°48.516 273 3.1 253 11.2
2008-05-06 09:26:57 51°13.974 2°48.51 273 3 255 11.1
2008-05-06 09:27:02 51°13.973 2°48.504 273 3.1 253 10.9
2008-05-06 09:27:07 51°13.972 2°48.497 273 3 254 11.1
2008-05-06 09:27:12 51°13.971 2°48.491 273 3 252 11.2
2008-05-06 09:27:17 51°13.969 2°48.485 273 3 253 11.2
2008-05-06 09:27:22 51°13.968 2°48.478 272.8 3 252 11
2008-05-06 09:27:27 51°13.967 2°48.472 272.7 3 252 11.2
2008-05-06 09:27:32 51°13.966 2°48.466 272.6 3 253 11.1
2008-05-06 09:27:37 51°13.964 2°48.459 272.4 3 252 11
2008-05-06 09:27:42 51°13.963 2°48.453 272.2 3 252 11.2
2008-05-06 09:27:47 51°13.962 2°48.447 272.2 3 253 11.3
2008-05-06 09:27:52 51°13.961 2°48.441 272.8 3 253 11
2008-05-06 09:27:57 51°13.96 2°48.434 273.8 3 253 11.1
2008-05-06 09:28:02 51°13.959 2°48.428 275.2 2.9 255 11.3
2008-05-06 09:28:07 51°13.958 2°48.422 276.6 3 255 11
2008-05-06 09:28:12 51°13.957 2°48.415 278.2 2.9 257 11.2
2008-05-06 09:28:17 51°13.956 2°48.409 280.1 2.9 257 11.2
2008-05-06 09:28:22 51°13.955 2°48.403 281.8 2.8 258 11.2
2008-05-06 09:28:27 51°13.954 2°48.397 284 2.8 259 11.3
2008-05-06 09:28:32 51°13.954 2°48.391 286.4 2.8 260 11.2
2008-05-06 09:28:37 51°13.953 2°48.385 288.8 2.8 261 11.2
2008-05-06 09:28:42 51°13.953 2°48.379 291.6 2.7 262 11.3
2008-05-06 09:28:47 51°13.952 2°48.373 294.2 2.7 264 11.3
2008-05-06 09:28:52 51°13.952 2°48.367 296.8 2.7 264 11.1
2008-05-06 09:28:57 51°13.952 2°48.361 299.2 2.6 265 11.3
2008-05-06 09:29:02 51°13.951 2°48.356 301.8 2.5 265 11.3
2008-05-06 09:29:07 51°13.951 2°48.35 303.9 2.5 264 11.1
2008-05-06 09:29:12 51°13.95 2°48.345 305.5 2.4 263 11
2008-05-06 09:29:17 51°13.95 2°48.34 306.8 2.4 262 11.2
2008-05-06 09:29:22 51°13.95 2°48.335 307.6 2.3 263 11.1
2008-05-06 09:29:27 51°13.949 2°48.33 308.3 2.3 263 11.3
2008-05-06 09:29:32 51°13.949 2°48.325 308.9 2.2 262 11.3
2008-05-06 09:29:37 51°13.948 2°48.32 309.4 2.2 261 11.1
2008-05-06 09:29:42 51°13.948 2°48.315 309.8 2.2 260 11.3
2008-05-06 09:29:47 51°13.947 2°48.311 310 2.1 261 11.1
2008-05-06 09:29:52 51°13.947 2°48.306 310.2 2.1 261 11.3
2008-05-06 09:29:57 51°13.946 2°48.301 310.2 2.1 260 11.3
2008-05-06 09:30:02 51°13.946 2°48.297 310.2 2.1 259 11.1
2008-05-06 09:30:07 51°13.945 2°48.292 310.2 2 259 11.3
2008-05-06 09:30:12 51°13.944 2°48.288 310.2 2.1 258 11.1
2008-05-06 09:30:17 51°13.944 2°48.284 310.3 2 258 11.4
2008-05-06 09:30:22 51°13.943 2°48.279 310.3 2 257 11.2
2008-05-06 09:30:27 51°13.942 2°48.275 310.3 2 257 11.3
2008-05-06 09:30:32 51°13.942 2°48.27 310.3 2 256 11.3
2008-05-06 09:30:37 51°13.941 2°48.266 310.2 2 255 11.3
2008-05-06 09:30:42 51°13.94 2°48.262 310.1 2 255 11.4
2008-05-06 09:30:47 51°13.94 2°48.258 310 2 254 11.3
2008-05-06 09:30:52 51°13.939 2°48.254 310 2 254 11.4
2008-05-06 09:30:57 51°13.938 2°48.249 310 1.9 254 11.3
2008-05-06 09:31:02 51°13.938 2°48.245 310 2 253 11.4
2008-05-06 09:31:07 51°13.937 2°48.241 310 1.9 253 11
2008-05-06 09:31:12 51°13.936 2°48.237 310 2 252 11.3
2008-05-06 09:31:17 51°13.935 2°48.233 309.9 1.9 252 11.4
2008-05-06 09:31:22 51°13.934 2°48.229 309.8 1.9 251 11.4
2008-05-06 09:31:27 51°13.933 2°48.225 309.6 1.9 251 11.4
2008-05-06 09:31:32 51°13.933 2°48.221 309.6 1.9 251 11.3
2008-05-06 09:31:37 51°13.932 2°48.217 309.4 1.9 251 11.4
2008-05-06 09:31:42 51°13.931 2°48.213 309.2 1.9 250 11.3
2008-05-06 09:31:47 51°13.93 2°48.209 309.2 1.9 252 11.3
2008-05-06 09:31:52 51°13.929 2°48.206 309.1 1.9 250 11.3
2008-05-06 09:31:57 51°13.928 2°48.202 308.9 1.8 250 11.3
2008-05-06 09:32:02 51°13.927 2°48.198 308.9 1.9 248 11.3
2008-05-06 09:32:07 51°13.926 2°48.194 308.8 1.8 250 11.1
2008-05-06 09:32:12 51°13.926 2°48.191 308.8 1.8 249 11.3
2008-05-06 09:32:17 51°13.925 2°48.187 308.8 1.8 250 11.2
2008-05-06 09:32:22 51°13.924 2°48.183 308.9 1.8 249 11.4
2008-05-06 09:32:27 51°13.923 2°48.18 309.1 1.8 249 11.4
2008-05-06 09:32:32 51°13.922 2°48.176 309.1 1.8 248 11.3
2008-05-06 09:32:37 51°13.921 2°48.172 309.5 1.8 250 11.4
2008-05-06 09:32:42 51°13.92 2°48.168 309.9 1.8 251 11.4
2008-05-06 09:32:47 51°13.92 2°48.164 310.5 1.9 254 11.3
2008-05-06 09:32:52 51°13.919 2°48.16 311.4 1.9 256 11.4
2008-05-06 09:32:57 51°13.918 2°48.156 312.7 1.9 258 11.4
2008-05-06 09:33:02 51°13.918 2°48.152 314.2 1.9 264 11.2
2008-05-06 09:33:07 51°13.918 2°48.147 315.9 2.2 271 11.2
2008-05-06 09:33:12 51°13.919 2°48.142 318.3 2.2 281 11.3
2008-05-06 09:33:17 51°13.92 2°48.137 322.2 2.3 285 11.3
2008-05-06 09:33:22 51°13.921 2°48.132 326.6 2.3 293 11.3
2008-05-06 09:33:27 51°13.923 2°48.127 331.5 2.3 300 11.4
2008-05-06 09:33:32 51°13.924 2°48.123 336.6 2.3 306 11.4
2008-05-06 09:33:37 51°13.926 2°48.119 341.7 2.3 311 11.2
2008-05-06 09:33:42 51°13.929 2°48.116 346.9 2.3 317 11.4
2008-05-06 09:33:47 51°13.932 2°48.113 352 2.2 325 11.3
2008-05-06 09:33:52 51°13.934 2°48.111 357.5 2.2 332 11.4
2008-05-06 09:33:57 51°13.937 2°48.11 2.9 2.1 338 11.5
2008-05-06 09:34:02 51°13.94 2°48.109 8.5 2 346 11.4
2008-05-06 09:34:07 51°13.943 2°48.108 14.1 1.9 357 11.5
2008-05-06 09:34:12 51°13.945 2°48.109 19.8 1.9 6 11.4
2008-05-06 09:34:17 51°13.948 2°48.11 25.3 1.9 13 11.4
2008-05-06 09:34:22 51°13.95 2°48.112 31 1.9 23 11.5
2008-05-06 09:34:27 51°13.952 2°48.114 36.6 1.8 34 11.2
2008-05-06 09:34:32 51°13.954 2°48.117 42.2 1.8 46 11.5
2008-05-06 09:34:37 51°13.955 2°48.121 48.1 1.8 55 11.3
2008-05-06 09:34:42 51°13.956 2°48.124 54.2 1.9 65 11.3
2008-05-06 09:34:47 51°13.957 2°48.129 60.1 1.9 76 11.4
2008-05-06 09:34:52 51°13.957 2°48.133 66 2.1 85 11.4
2008-05-06 09:34:57 51°13.957 2°48.138 72.3 2.3 92 11.3
2008-05-06 09:35:02 51°13.957 2°48.144 76.6 2.4 91 11.4
2008-05-06 09:35:07 51°13.956 2°48.149 79.2 2.5 95 11.4
2008-05-06 09:35:12 51°13.956 2°48.155 80.5 2.6 93 11.3
2008-05-06 09:35:17 51°13.956 2°48.161 80.6 2.7 94 11.3
2008-05-06 09:35:22 51°13.956 2°48.167 80.1 2.8 92 11.3
2008-05-06 09:35:27 51°13.956 2°48.174 79.2 2.9 90 11.4
2008-05-06 09:35:32 51°13.956 2°48.18 78.1 3 89 11.5
2008-05-06 09:35:37 51°13.956 2°48.187 76.8 3 87 11.4
2008-05-06 09:35:42 51°13.957 2°48.194 75.4 3.1 84 11.4
2008-05-06 09:35:47 51°13.957 2°48.201 74 3.2 82 11.4
2008-05-06 09:35:52 51°13.958 2°48.208 72.6 3.2 81 11.3
2008-05-06 09:35:57 51°13.959 2°48.215 71.6 3.2 79 11.4
2008-05-06 09:36:02 51°13.96 2°48.222 70 3.3 78 11.5
2008-05-06 09:36:07 51°13.961 2°48.229 68.9 3.2 76 11.5
2008-05-06 09:36:12 51°13.962 2°48.236 67.7 3.3 75 11.5
2008-05-06 09:36:17 51°13.964 2°48.243 66.9 3.3 73 11.3
2008-05-06 09:36:22 51°13.965 2°48.25 66.3 3.4 72 11.2
2008-05-06 09:36:26 51°13.966 2°48.256 65.6 3.4 72 11.4
2008-05-06 09:36:32 51°13.968 2°48.265 64.9 3.4 72 11.4
2008-05-06 09:36:37 51°13.97 2°48.272 64.5 3.5 71 11.3
2008-05-06 09:36:41 51°13.971 2°48.278 64.6 3.5 71 11.4
2008-05-06 09:36:47 51°13.973 2°48.287 64.7 3.6 71 11.5
2008-05-06 09:36:52 51°13.975 2°48.294 65 3.7 71 11.3
2008-05-06 09:36:57 51°13.976 2°48.302 65.3 3.8 72 11.3
2008-05-06 09:37:01 51°13.978 2°48.309 65.7 3.9 71 11.3
2008-05-06 09:37:07 51°13.98 2°48.319 66 4 72 11.3
2008-05-06 09:37:12 51°13.981 2°48.327 66.4 4.1 72 11.2
2008-05-06 09:37:17 51°13.983 2°48.336 66.7 4.1 73 11.3
2008-05-06 09:37:21 51°13.985 2°48.343 67.1 4.3 72 11.3
2008-05-06 09:37:27 51°13.986 2°48.354 67.5 4.3 73 11.1
2008-05-06 09:37:32 51°13.988 2°48.363 67.8 4.3 73 11.2
2008-05-06 09:37:36 51°13.989 2°48.371 67.8 4.3 74 11.2
2008-05-06 09:37:42 51°13.992 2°48.382 67.8 4.4 73 11.3
2008-05-06 09:37:47 51°13.993 2°48.391 67.7 4.4 73 11.3
2008-05-06 09:37:52 51°13.995 2°48.401 67.7 4.5 73 11.3
2008-05-06 09:37:56 51°13.997 2°48.408 67.7 4.5 73 11.2
2008-05-06 09:38:01 51°13.998 2°48.418 67.7 4.6 73 11.2
2008-05-06 09:38:07 51°14.001 2°48.429 67.8 4.6 73 11.4
2008-05-06 09:38:12 51°14.002 2°48.439 67.7 4.5 74 11.4
2008-05-06 09:38:16 51°14.004 2°48.447 67.9 4.6 73 11.5
2008-05-06 09:38:21 51°14.006 2°48.457 68 4.6 73 11.4
2008-05-06 09:38:27 51°14.008 2°48.468 68 4.6 74 11.4
2008-05-06 09:38:32 51°14.01 2°48.478 68 4.6 74 11.4
2008-05-06 09:38:37 51°14.011 2°48.488 68 4.6 74 11.3
2008-05-06 09:38:41 51°14.013 2°48.496 68 4.6 73 11.3
2008-05-06 09:38:47 51°14.015 2°48.508 68.1 4.7 74 11.1
2008-05-06 09:38:52 51°14.017 2°48.518 68.1 4.6 73 11.2
2008-05-06 09:38:57 51°14.019 2°48.528 68.1 4.7 74 11.2
2008-05-06 09:39:01 51°14.02 2°48.535 68.1 4.7 74 11.4
2008-05-06 09:39:07 51°14.022 2°48.547 68.3 4.7 74 11.2
2008-05-06 09:39:12 51°14.024 2°48.557 68.7 4.7 75 11.2
2008-05-06 09:39:17 51°14.026 2°48.567 69 4.7 75 11.4
2008-05-06 09:39:21 51°14.027 2°48.576 69.1 4.8 75 11.3
2008-05-06 09:39:27 51°14.029 2°48.588 69.4 5 75 11.3
2008-05-06 09:39:32 51°14.031 2°48.6 69.5 5.2 75 11.3
2008-05-06 09:39:37 51°14.033 2°48.611 69.5 5.4 75 11.3
2008-05-06 09:39:42 51°14.035 2°48.623 69.5 5.6 75 11.1
2008-05-06 09:39:47 51°14.037 2°48.635 69.6 5.7 74 11.3
2008-05-06 09:39:52 51°14.04 2°48.648 69.7 5.9 75 11.3
2008-05-06 09:39:56 51°14.041 2°48.658 69.9 5.9 75 11.3
2008-05-06 09:40:02 51°14.044 2°48.673 70.2 6 75 11.1
2008-05-06 09:40:07 51°14.046 2°48.686 70.3 6.1 75 11.3
2008-05-06 09:40:12 51°14.048 2°48.699 70.1 6.2 74 11.3
2008-05-06 09:40:16 51°14.05 2°48.71 69.9 6.3 75 11.3
2008-05-06 09:40:22 51°14.053 2°48.726 69.7 6.3 74 11.3
2008-05-06 09:40:27 51°14.056 2°48.739 69.6 6.3 74 11.3
2008-05-06 09:40:32 51°14.058 2°48.753 69.4 6.4 74 11.4
2008-05-06 09:40:36 51°14.06 2°48.764 69.6 6.4 74 11.1
2008-05-06 09:40:41 51°14.062 2°48.777 70 6.4 74 11.4
2008-05-06 09:40:47 51°14.065 2°48.794 70.1 6.5 74 11.3
2008-05-06 09:40:52 51°14.068 2°48.808 70.1 6.6 74 11.3
2008-05-06 09:40:57 51°14.071 2°48.822 70 6.7 74 11.4
2008-05-06 09:41:01 51°14.073 2°48.834 69.6 6.8 73 11.4
2008-05-06 09:41:07 51°14.076 2°48.851 69.3 6.9 74 11.3
2008-05-06 09:41:12 51°14.079 2°48.866 69.5 7 74 11.3
2008-05-06 09:41:16 51°14.081 2°48.878 69.6 7 73 11.3
2008-05-06 09:41:21 51°14.083 2°48.893 70 7.1 75 11.3
2008-05-06 09:41:27 51°14.087 2°48.911 70.3 7.1 74 11.4
2008-05-06 09:41:32 51°14.09 2°48.926 70.3 7.1 74 11.2
2008-05-06 09:41:37 51°14.092 2°48.942 70.3 7.2 73 11.2
2008-05-06 09:41:41 51°14.095 2°48.954 70 7.2 73 11.2
2008-05-06 09:41:47 51°14.098 2°48.972 69.6 7.3 74 11.3
2008-05-06 09:41:52 51°14.101 2°48.988 69.6 7.3 73 11.2
2008-05-06 09:41:57 51°14.104 2°49.003 69.6 7.4 73 11.1
2008-05-06 09:42:02 51°14.107 2°49.019 69.4 7.4 73 11.2
2008-05-06 09:42:07 51°14.11 2°49.034 69.3 7.4 73 11.3
2008-05-06 09:42:12 51°14.113 2°49.05 69.4 7.4 72 11
2008-05-06 09:42:16 51°14.115 2°49.063 69.2 7.5 74 11.1
2008-05-06 09:42:22 51°14.119 2°49.082 69.6 7.5 73 11.1
2008-05-06 09:42:27 51°14.122 2°49.098 69.9 7.5 74 11
2008-05-06 09:42:32 51°14.125 2°49.113 70 7.5 74 11.1
2008-05-06 09:42:36 51°14.127 2°49.126 70.3 7.5 74 11.1
2008-05-06 09:42:42 51°14.131 2°49.145 70.1 7.5 73 11.2
2008-05-06 09:42:47 51°14.133 2°49.161 69.6 7.5 73 11.2
2008-05-06 09:42:52 51°14.137 2°49.177 69.6 7.5 72 11.1
2008-05-06 09:42:57 51°14.14 2°49.193 69.4 7.5 73 11.1
2008-05-06 09:43:01 51°14.142 2°49.206 69.6 7.5 74 11
2008-05-06 09:43:07 51°14.146 2°49.225 70.1 7.5 73 11
2008-05-06 09:43:12 51°14.148 2°49.241 70.4 7.6 76 11
2008-05-06 09:43:16 51°14.15 2°49.254 71.6 7.6 76 11
2008-05-06 09:43:21 51°14.153 2°49.27 72.7 7.6 77 11
2008-05-06 09:43:27 51°14.155 2°49.29 73 7.6 77 11.1
2008-05-06 09:43:32 51°14.157 2°49.307 73.7 7.6 79 11
2008-05-06 09:43:37 51°14.16 2°49.323 74.1 7.6 78 10.9
2008-05-06 09:43:41 51°14.161 2°49.336 74.4 7.6 79 10.9
2008-05-06 09:43:47 51°14.164 2°49.356 74.6 7.6 79 10.9
2008-05-06 09:43:52 51°14.166 2°49.373 75 7.6 79 10.8
2008-05-06 09:43:57 51°14.168 2°49.389 75.3 7.6 80 10.8
2008-05-06 09:44:02 51°14.169 2°49.406 75.8 7.6 80 10.8
2008-05-06 09:44:07 51°14.171 2°49.422 76.1 7.7 80 10.9
2008-05-06 09:44:12 51°14.173 2°49.439 76.1 7.6 79 10.8
2008-05-06 09:44:17 51°14.175 2°49.456 75.8 7.6 80 10.7
2008-05-06 09:44:22 51°14.177 2°49.472 75.8 7.6 79 10.6
2008-05-06 09:44:27 51°14.179 2°49.489 75.7 7.7 80 10.7
2008-05-06 09:44:32 51°14.181 2°49.506 76.1 7.7 80 10.6
2008-05-06 09:44:36 51°14.182 2°49.519 76.2 7.7 80 10.7
2008-05-06 09:44:41 51°14.184 2°49.536 76.1 7.7 80 10.7
2008-05-06 09:44:47 51°14.186 2°49.556 76.1 7.7 79 10.7
2008-05-06 09:44:52 51°14.188 2°49.572 76.1 7.7 80 10.7
2008-05-06 09:44:57 51°14.19 2°49.589 76.1 7.7 79 10.6
2008-05-06 09:45:01 51°14.192 2°49.602 75.7 7.7 80 10.6
2008-05-06 09:45:07 51°14.194 2°49.622 75.8 7.6 80 10.6
2008-05-06 09:45:12 51°14.196 2°49.639 76.1 7.6 80 10.6